sensor_id;sensor_type;location;lat;lon;timestamp;P1;durP1;ratioP1;P2;durP2;ratioP2
4422;SDS011;2224;49.814;8.650;2023-05-14T00:01:40;7.47;;;6.87;;
4422;SDS011;2224;49.814;8.650;2023-05-14T00:04:05;8.40;;;7.47;;
4422;SDS011;2224;49.814;8.650;2023-05-14T00:06:31;8.23;;;7.53;;
4422;SDS011;2224;49.814;8.650;2023-05-14T00:08:56;7.20;;;6.60;;
4422;SDS011;2224;49.814;8.650;2023-05-14T00:11:22;7.87;;;7.17;;
4422;SDS011;2224;49.814;8.650;2023-05-14T00:13:48;7.40;;;6.80;;
4422;SDS011;2224;49.814;8.650;2023-05-14T00:16:14;7.20;;;6.60;;
4422;SDS011;2224;49.814;8.650;2023-05-14T00:18:39;7.67;;;6.97;;
4422;SDS011;2224;49.814;8.650;2023-05-14T00:21:05;8.67;;;7.13;;
4422;SDS011;2224;49.814;8.650;2023-05-14T00:23:30;7.93;;;7.23;;
4422;SDS011;2224;49.814;8.650;2023-05-14T00:25:55;8.53;;;7.73;;
4422;SDS011;2224;49.814;8.650;2023-05-14T00:28:21;9.57;;;7.30;;
4422;SDS011;2224;49.814;8.650;2023-05-14T00:30:46;8.13;;;7.43;;
4422;SDS011;2224;49.814;8.650;2023-05-14T00:33:11;7.80;;;7.07;;
4422;SDS011;2224;49.814;8.650;2023-05-14T00:35:37;8.03;;;7.30;;
4422;SDS011;2224;49.814;8.650;2023-05-14T00:38:02;8.03;;;6.40;;
4422;SDS011;2224;49.814;8.650;2023-05-14T00:40:27;8.83;;;7.20;;
4422;SDS011;2224;49.814;8.650;2023-05-14T00:42:53;7.73;;;6.97;;
4422;SDS011;2224;49.814;8.650;2023-05-14T00:45:19;8.20;;;7.40;;
4422;SDS011;2224;49.814;8.650;2023-05-14T00:47:44;10.30;;;7.63;;
4422;SDS011;2224;49.814;8.650;2023-05-14T00:50:10;8.67;;;7.70;;
4422;SDS011;2224;49.814;8.650;2023-05-14T00:52:36;8.80;;;8.00;;
4422;SDS011;2224;49.814;8.650;2023-05-14T00:55:03;8.43;;;7.73;;
4422;SDS011;2224;49.814;8.650;2023-05-14T00:57:30;8.83;;;8.03;;
4422;SDS011;2224;49.814;8.650;2023-05-14T00:59:55;8.33;;;7.63;;
4422;SDS011;2224;49.814;8.650;2023-05-14T01:02:21;10.20;;;9.03;;
4422;SDS011;2224;49.814;8.650;2023-05-14T01:04:46;9.70;;;8.80;;
4422;SDS011;2224;49.814;8.650;2023-05-14T01:10:20;9.17;;;8.27;;
4422;SDS011;2224;49.814;8.650;2023-05-14T01:13:26;7.53;;;6.83;;
4422;SDS011;2224;49.814;8.650;2023-05-14T01:15:55;7.80;;;7.13;;
4422;SDS011;2224;49.814;8.650;2023-05-14T01:18:22;8.40;;;7.60;;
4422;SDS011;2224;49.814;8.650;2023-05-14T01:20:50;11.83;;;7.67;;
4422;SDS011;2224;49.814;8.650;2023-05-14T01:23:16;7.70;;;7.00;;
4422;SDS011;2224;49.814;8.650;2023-05-14T01:25:42;8.13;;;7.33;;
4422;SDS011;2224;49.814;8.650;2023-05-14T01:28:17;8.93;;;7.97;;
4422;SDS011;2224;49.814;8.650;2023-05-14T01:30:48;7.83;;;7.07;;
4422;SDS011;2224;49.814;8.650;2023-05-14T01:33:17;8.90;;;8.00;;
4422;SDS011;2224;49.814;8.650;2023-05-14T01:35:43;9.27;;;7.53;;
4422;SDS011;2224;49.814;8.650;2023-05-14T01:38:09;8.33;;;7.07;;
4422;SDS011;2224;49.814;8.650;2023-05-14T01:40:36;7.10;;;6.40;;
4422;SDS011;2224;49.814;8.650;2023-05-14T01:43:02;8.80;;;8.00;;
4422;SDS011;2224;49.814;8.650;2023-05-14T01:45:28;8.57;;;7.17;;
4422;SDS011;2224;49.814;8.650;2023-05-14T01:47:54;7.47;;;6.77;;
4422;SDS011;2224;49.814;8.650;2023-05-14T01:50:19;7.97;;;7.37;;
4422;SDS011;2224;49.814;8.650;2023-05-14T01:52:45;8.27;;;7.57;;
4422;SDS011;2224;49.814;8.650;2023-05-14T01:55:12;8.83;;;6.87;;
4422;SDS011;2224;49.814;8.650;2023-05-14T01:57:37;10.37;;;7.50;;
4422;SDS011;2224;49.814;8.650;2023-05-14T02:00:02;7.57;;;6.87;;
4422;SDS011;2224;49.814;8.650;2023-05-14T02:02:28;9.07;;;8.17;;
4422;SDS011;2224;49.814;8.650;2023-05-14T02:04:53;8.90;;;7.57;;
4422;SDS011;2224;49.814;8.650;2023-05-14T02:07:19;7.80;;;7.10;;
4422;SDS011;2224;49.814;8.650;2023-05-14T02:09:44;8.40;;;7.70;;
4422;SDS011;2224;49.814;8.650;2023-05-14T02:12:09;8.53;;;7.83;;
4422;SDS011;2224;49.814;8.650;2023-05-14T02:14:35;8.63;;;7.90;;
4422;SDS011;2224;49.814;8.650;2023-05-14T02:17:01;9.40;;;7.60;;
4422;SDS011;2224;49.814;8.650;2023-05-14T02:19:27;8.80;;;7.50;;
4422;SDS011;2224;49.814;8.650;2023-05-14T02:21:53;9.97;;;8.07;;
4422;SDS011;2224;49.814;8.650;2023-05-14T02:24:18;10.03;;;7.80;;
4422;SDS011;2224;49.814;8.650;2023-05-14T02:26:43;9.07;;;7.73;;
4422;SDS011;2224;49.814;8.650;2023-05-14T02:29:08;8.77;;;7.90;;
4422;SDS011;2224;49.814;8.650;2023-05-14T02:31:34;8.20;;;7.43;;
4422;SDS011;2224;49.814;8.650;2023-05-14T02:34:00;9.00;;;8.20;;
4422;SDS011;2224;49.814;8.650;2023-05-14T02:36:26;8.83;;;8.10;;
4422;SDS011;2224;49.814;8.650;2023-05-14T02:38:51;9.47;;;8.60;;
4422;SDS011;2224;49.814;8.650;2023-05-14T02:41:16;9.03;;;7.90;;
4422;SDS011;2224;49.814;8.650;2023-05-14T02:43:41;8.90;;;8.10;;
4422;SDS011;2224;49.814;8.650;2023-05-14T02:46:07;8.97;;;8.17;;
4422;SDS011;2224;49.814;8.650;2023-05-14T02:48:32;8.73;;;7.93;;
4422;SDS011;2224;49.814;8.650;2023-05-14T02:50:57;9.60;;;8.80;;
4422;SDS011;2224;49.814;8.650;2023-05-14T02:53:23;9.30;;;8.43;;
4422;SDS011;2224;49.814;8.650;2023-05-14T02:55:48;9.37;;;8.47;;
4422;SDS011;2224;49.814;8.650;2023-05-14T02:58:13;9.60;;;8.80;;
4422;SDS011;2224;49.814;8.650;2023-05-14T03:00:39;10.03;;;9.10;;
4422;SDS011;2224;49.814;8.650;2023-05-14T03:03:04;10.33;;;8.70;;
4422;SDS011;2224;49.814;8.650;2023-05-14T03:05:30;9.87;;;8.97;;
4422;SDS011;2224;49.814;8.650;2023-05-14T03:07:59;9.83;;;9.03;;
4422;SDS011;2224;49.814;8.650;2023-05-14T03:10:24;9.67;;;8.80;;
4422;SDS011;2224;49.814;8.650;2023-05-14T03:12:50;10.77;;;9.77;;
4422;SDS011;2224;49.814;8.650;2023-05-14T03:15:15;10.73;;;9.80;;
4422;SDS011;2224;49.814;8.650;2023-05-14T03:17:41;9.70;;;8.57;;
4422;SDS011;2224;49.814;8.650;2023-05-14T03:20:06;10.57;;;9.67;;
4422;SDS011;2224;49.814;8.650;2023-05-14T03:22:32;11.23;;;8.90;;
4422;SDS011;2224;49.814;8.650;2023-05-14T03:24:57;10.97;;;9.97;;
4422;SDS011;2224;49.814;8.650;2023-05-14T03:27:22;11.03;;;9.93;;
4422;SDS011;2224;49.814;8.650;2023-05-14T03:29:48;11.67;;;10.57;;
4422;SDS011;2224;49.814;8.650;2023-05-14T03:32:13;11.33;;;10.23;;
4422;SDS011;2224;49.814;8.650;2023-05-14T03:34:38;11.23;;;10.33;;
4422;SDS011;2224;49.814;8.650;2023-05-14T03:37:04;12.47;;;11.20;;
4422;SDS011;2224;49.814;8.650;2023-05-14T03:39:29;12.97;;;11.60;;
4422;SDS011;2224;49.814;8.650;2023-05-14T03:41:55;12.67;;;10.93;;
4422;SDS011;2224;49.814;8.650;2023-05-14T03:44:22;12.57;;;11.40;;
4422;SDS011;2224;49.814;8.650;2023-05-14T03:46:48;11.37;;;10.27;;
4422;SDS011;2224;49.814;8.650;2023-05-14T03:49:13;12.60;;;11.40;;
4422;SDS011;2224;49.814;8.650;2023-05-14T03:51:38;12.37;;;11.20;;
4422;SDS011;2224;49.814;8.650;2023-05-14T03:54:04;12.13;;;10.93;;
4422;SDS011;2224;49.814;8.650;2023-05-14T03:56:29;12.30;;;11.07;;
4422;SDS011;2224;49.814;8.650;2023-05-14T03:58:55;12.73;;;11.43;;
4422;SDS011;2224;49.814;8.650;2023-05-14T04:01:20;12.23;;;11.03;;
4422;SDS011;2224;49.814;8.650;2023-05-14T04:03:45;12.43;;;11.30;;
4422;SDS011;2224;49.814;8.650;2023-05-14T04:06:11;13.20;;;12.00;;
4422;SDS011;2224;49.814;8.650;2023-05-14T04:08:36;11.50;;;10.50;;
4422;SDS011;2224;49.814;8.650;2023-05-14T04:11:01;12.03;;;11.03;;
4422;SDS011;2224;49.814;8.650;2023-05-14T04:13:27;12.23;;;11.13;;
4422;SDS011;2224;49.814;8.650;2023-05-14T04:15:52;13.37;;;11.07;;
4422;SDS011;2224;49.814;8.650;2023-05-14T04:18:17;12.30;;;11.10;;
4422;SDS011;2224;49.814;8.650;2023-05-14T04:20:43;11.40;;;10.40;;
4422;SDS011;2224;49.814;8.650;2023-05-14T04:23:08;12.97;;;10.50;;
4422;SDS011;2224;49.814;8.650;2023-05-14T04:25:33;10.53;;;9.63;;
4422;SDS011;2224;49.814;8.650;2023-05-14T04:27:59;11.20;;;10.20;;
4422;SDS011;2224;49.814;8.650;2023-05-14T04:30:24;11.40;;;10.33;;
4422;SDS011;2224;49.814;8.650;2023-05-14T04:32:50;11.60;;;9.90;;
4422;SDS011;2224;49.814;8.650;2023-05-14T04:35:15;10.70;;;9.60;;
4422;SDS011;2224;49.814;8.650;2023-05-14T04:37:40;11.07;;;9.97;;
4422;SDS011;2224;49.814;8.650;2023-05-14T04:40:07;12.30;;;11.10;;
4422;SDS011;2224;49.814;8.650;2023-05-14T04:42:35;12.63;;;10.40;;
4422;SDS011;2224;49.814;8.650;2023-05-14T04:45:00;11.40;;;10.33;;
4422;SDS011;2224;49.814;8.650;2023-05-14T04:47:25;10.70;;;9.70;;
4422;SDS011;2224;49.814;8.650;2023-05-14T04:49:51;10.03;;;9.17;;
4422;SDS011;2224;49.814;8.650;2023-05-14T04:52:16;11.17;;;10.13;;
4422;SDS011;2224;49.814;8.650;2023-05-14T04:54:41;10.90;;;9.90;;
4422;SDS011;2224;49.814;8.650;2023-05-14T04:57:07;10.83;;;9.83;;
4422;SDS011;2224;49.814;8.650;2023-05-14T04:59:32;11.77;;;10.67;;
4422;SDS011;2224;49.814;8.650;2023-05-14T05:01:57;11.53;;;10.53;;
4422;SDS011;2224;49.814;8.650;2023-05-14T05:04:23;15.43;;;10.80;;
4422;SDS011;2224;49.814;8.650;2023-05-14T05:06:49;11.43;;;10.37;;
4422;SDS011;2224;49.814;8.650;2023-05-14T05:09:14;10.43;;;9.43;;
4422;SDS011;2224;49.814;8.650;2023-05-14T05:11:40;11.20;;;10.20;;
4422;SDS011;2224;49.814;8.650;2023-05-14T05:14:06;12.13;;;10.43;;
4422;SDS011;2224;49.814;8.650;2023-05-14T05:16:31;12.90;;;10.80;;
4422;SDS011;2224;49.814;8.650;2023-05-14T05:18:56;11.70;;;10.70;;
4422;SDS011;2224;49.814;8.650;2023-05-14T05:21:22;11.00;;;9.87;;
4422;SDS011;2224;49.814;8.650;2023-05-14T05:23:47;11.57;;;10.07;;
4422;SDS011;2224;49.814;8.650;2023-05-14T05:26:12;12.17;;;10.20;;
4422;SDS011;2224;49.814;8.650;2023-05-14T05:28:38;13.23;;;10.90;;
4422;SDS011;2224;49.814;8.650;2023-05-14T05:31:03;11.60;;;10.53;;
4422;SDS011;2224;49.814;8.650;2023-05-14T05:33:28;10.50;;;9.60;;
4422;SDS011;2224;49.814;8.650;2023-05-14T05:35:54;11.10;;;10.10;;
4422;SDS011;2224;49.814;8.650;2023-05-14T05:38:19;11.33;;;10.33;;
4422;SDS011;2224;49.814;8.650;2023-05-14T05:40:44;11.30;;;10.20;;
4422;SDS011;2224;49.814;8.650;2023-05-14T05:43:10;11.30;;;10.30;;
4422;SDS011;2224;49.814;8.650;2023-05-14T05:45:37;11.93;;;10.77;;
4422;SDS011;2224;49.814;8.650;2023-05-14T05:48:03;10.30;;;9.40;;
4422;SDS011;2224;49.814;8.650;2023-05-14T05:50:28;11.37;;;10.37;;
4422;SDS011;2224;49.814;8.650;2023-05-14T05:52:54;12.13;;;11.00;;
4422;SDS011;2224;49.814;8.650;2023-05-14T05:55:19;15.13;;;9.57;;
4422;SDS011;2224;49.814;8.650;2023-05-14T05:57:45;10.50;;;9.50;;
4422;SDS011;2224;49.814;8.650;2023-05-14T06:00:10;11.23;;;10.23;;
4422;SDS011;2224;49.814;8.650;2023-05-14T06:02:42;10.30;;;9.30;;
4422;SDS011;2224;49.814;8.650;2023-05-14T06:05:07;11.00;;;10.00;;
4422;SDS011;2224;49.814;8.650;2023-05-14T06:07:33;10.60;;;9.60;;
4422;SDS011;2224;49.814;8.650;2023-05-14T06:09:59;10.43;;;9.50;;
4422;SDS011;2224;49.814;8.650;2023-05-14T06:12:24;10.13;;;9.13;;
4422;SDS011;2224;49.814;8.650;2023-05-14T06:14:50;9.30;;;8.50;;
4422;SDS011;2224;49.814;8.650;2023-05-14T06:17:15;9.90;;;8.90;;
4422;SDS011;2224;49.814;8.650;2023-05-14T06:19:40;9.93;;;8.90;;
4422;SDS011;2224;49.814;8.650;2023-05-14T06:22:06;8.77;;;8.07;;
4422;SDS011;2224;49.814;8.650;2023-05-14T06:24:31;9.33;;;8.53;;
4422;SDS011;2224;49.814;8.650;2023-05-14T06:26:57;9.47;;;8.57;;
4422;SDS011;2224;49.814;8.650;2023-05-14T06:29:22;9.43;;;8.53;;
4422;SDS011;2224;49.814;8.650;2023-05-14T06:31:47;9.37;;;8.47;;
4422;SDS011;2224;49.814;8.650;2023-05-14T06:34:13;8.80;;;7.90;;
4422;SDS011;2224;49.814;8.650;2023-05-14T06:36:38;7.57;;;6.90;;
4422;SDS011;2224;49.814;8.650;2023-05-14T06:39:04;7.23;;;6.60;;
4422;SDS011;2224;49.814;8.650;2023-05-14T06:41:29;7.70;;;7.00;;
4422;SDS011;2224;49.814;8.650;2023-05-14T06:43:54;7.03;;;6.50;;
4422;SDS011;2224;49.814;8.650;2023-05-14T06:46:20;9.07;;;7.67;;
4422;SDS011;2224;49.814;8.650;2023-05-14T06:48:45;7.10;;;6.40;;
4422;SDS011;2224;49.814;8.650;2023-05-14T06:51:11;6.90;;;6.20;;
4422;SDS011;2224;49.814;8.650;2023-05-14T06:53:37;6.90;;;6.30;;
4422;SDS011;2224;49.814;8.650;2023-05-14T06:56:03;7.27;;;6.57;;
4422;SDS011;2224;49.814;8.650;2023-05-14T06:58:28;7.53;;;6.90;;
4422;SDS011;2224;49.814;8.650;2023-05-14T07:00:54;6.83;;;6.33;;
4422;SDS011;2224;49.814;8.650;2023-05-14T07:03:19;7.33;;;6.73;;
4422;SDS011;2224;49.814;8.650;2023-05-14T07:05:46;7.17;;;6.57;;
4422;SDS011;2224;49.814;8.650;2023-05-14T07:08:11;9.63;;;6.20;;
4422;SDS011;2224;49.814;8.650;2023-05-14T07:10:36;7.37;;;6.67;;
4422;SDS011;2224;49.814;8.650;2023-05-14T07:13:03;7.50;;;6.80;;
4422;SDS011;2224;49.814;8.650;2023-05-14T07:15:28;6.20;;;5.60;;
4422;SDS011;2224;49.814;8.650;2023-05-14T07:17:53;7.87;;;7.17;;
4422;SDS011;2224;49.814;8.650;2023-05-14T07:20:19;7.37;;;6.70;;
4422;SDS011;2224;49.814;8.650;2023-05-14T07:22:44;7.47;;;6.87;;
4422;SDS011;2224;49.814;8.650;2023-05-14T07:25:09;8.43;;;7.63;;
4422;SDS011;2224;49.814;8.650;2023-05-14T07:27:35;7.60;;;6.87;;
4422;SDS011;2224;49.814;8.650;2023-05-14T07:30:00;6.50;;;5.90;;
4422;SDS011;2224;49.814;8.650;2023-05-14T07:32:26;7.47;;;6.77;;
4422;SDS011;2224;49.814;8.650;2023-05-14T07:34:51;7.63;;;6.93;;
4422;SDS011;2224;49.814;8.650;2023-05-14T07:37:16;6.07;;;5.50;;
4422;SDS011;2224;49.814;8.650;2023-05-14T07:39:42;6.40;;;5.90;;
4422;SDS011;2224;49.814;8.650;2023-05-14T07:42:07;6.57;;;6.00;;
4422;SDS011;2224;49.814;8.650;2023-05-14T07:44:33;6.73;;;6.03;;
4422;SDS011;2224;49.814;8.650;2023-05-14T07:46:58;6.80;;;6.07;;
4422;SDS011;2224;49.814;8.650;2023-05-14T07:49:24;6.97;;;6.37;;
4422;SDS011;2224;49.814;8.650;2023-05-14T07:51:49;7.53;;;6.90;;
4422;SDS011;2224;49.814;8.650;2023-05-14T07:54:15;8.90;;;6.80;;
4422;SDS011;2224;49.814;8.650;2023-05-14T07:56:40;7.40;;;6.80;;
4422;SDS011;2224;49.814;8.650;2023-05-14T07:59:06;6.90;;;6.20;;
4422;SDS011;2224;49.814;8.650;2023-05-14T08:01:31;7.27;;;6.60;;
4422;SDS011;2224;49.814;8.650;2023-05-14T08:03:57;7.53;;;6.93;;
4422;SDS011;2224;49.814;8.650;2023-05-14T08:06:23;9.33;;;6.67;;
4422;SDS011;2224;49.814;8.650;2023-05-14T08:08:51;7.20;;;6.50;;
4422;SDS011;2224;49.814;8.650;2023-05-14T08:11:16;7.87;;;7.17;;
4422;SDS011;2224;49.814;8.650;2023-05-14T08:13:42;7.73;;;7.03;;
4422;SDS011;2224;49.814;8.650;2023-05-14T08:16:07;7.93;;;6.63;;
4422;SDS011;2224;49.814;8.650;2023-05-14T08:18:33;6.47;;;5.93;;
4422;SDS011;2224;49.814;8.650;2023-05-14T08:20:59;7.20;;;6.50;;
4422;SDS011;2224;49.814;8.650;2023-05-14T08:23:24;7.47;;;5.70;;
4422;SDS011;2224;49.814;8.650;2023-05-14T08:25:50;7.00;;;6.30;;
4422;SDS011;2224;49.814;8.650;2023-05-14T08:28:15;6.70;;;6.20;;
4422;SDS011;2224;49.814;8.650;2023-05-14T08:30:41;7.13;;;6.53;;
4422;SDS011;2224;49.814;8.650;2023-05-14T08:33:06;7.30;;;6.70;;
4422;SDS011;2224;49.814;8.650;2023-05-14T08:35:32;7.07;;;6.30;;
4422;SDS011;2224;49.814;8.650;2023-05-14T08:37:57;7.13;;;6.50;;
4422;SDS011;2224;49.814;8.650;2023-05-14T08:40:22;7.13;;;6.43;;
4422;SDS011;2224;49.814;8.650;2023-05-14T08:42:48;6.90;;;6.40;;
4422;SDS011;2224;49.814;8.650;2023-05-14T08:45:16;7.73;;;7.03;;
4422;SDS011;2224;49.814;8.650;2023-05-14T08:47:44;7.10;;;6.47;;
4422;SDS011;2224;49.814;8.650;2023-05-14T08:50:12;7.20;;;6.53;;
4422;SDS011;2224;49.814;8.650;2023-05-14T08:52:37;7.30;;;6.40;;
4422;SDS011;2224;49.814;8.650;2023-05-14T08:55:03;7.33;;;6.63;;
4422;SDS011;2224;49.814;8.650;2023-05-14T08:57:31;7.70;;;7.00;;
4422;SDS011;2224;49.814;8.650;2023-05-14T08:59:57;6.70;;;5.93;;
4422;SDS011;2224;49.814;8.650;2023-05-14T09:02:23;7.97;;;7.27;;
4422;SDS011;2224;49.814;8.650;2023-05-14T09:04:59;8.50;;;7.67;;
4422;SDS011;2224;49.814;8.650;2023-05-14T09:07:25;7.90;;;6.97;;
4422;SDS011;2224;49.814;8.650;2023-05-14T09:09:51;7.90;;;7.20;;
4422;SDS011;2224;49.814;8.650;2023-05-14T09:12:18;7.50;;;6.80;;
4422;SDS011;2224;49.814;8.650;2023-05-14T09:14:43;7.57;;;6.23;;
4422;SDS011;2224;49.814;8.650;2023-05-14T09:17:09;7.10;;;6.40;;
4422;SDS011;2224;49.814;8.650;2023-05-14T09:19:37;7.70;;;7.00;;
4422;SDS011;2224;49.814;8.650;2023-05-14T09:22:05;7.00;;;6.10;;
4422;SDS011;2224;49.814;8.650;2023-05-14T09:24:32;9.20;;;6.57;;
4422;SDS011;2224;49.814;8.650;2023-05-14T09:26:58;7.30;;;6.60;;
4422;SDS011;2224;49.814;8.650;2023-05-14T09:29:24;6.20;;;5.70;;
4422;SDS011;2224;49.814;8.650;2023-05-14T09:31:50;6.13;;;5.50;;
4422;SDS011;2224;49.814;8.650;2023-05-14T09:34:28;7.30;;;6.60;;
4422;SDS011;2224;49.814;8.650;2023-05-14T09:37:04;7.27;;;6.57;;
4422;SDS011;2224;49.814;8.650;2023-05-14T09:39:32;7.00;;;6.43;;
4422;SDS011;2224;49.814;8.650;2023-05-14T09:41:58;6.67;;;6.07;;
4422;SDS011;2224;49.814;8.650;2023-05-14T09:44:23;6.17;;;5.67;;
4422;SDS011;2224;49.814;8.650;2023-05-14T09:46:49;5.93;;;5.43;;
4422;SDS011;2224;49.814;8.650;2023-05-14T09:49:15;6.40;;;5.20;;
4422;SDS011;2224;49.814;8.650;2023-05-14T09:51:41;6.97;;;6.27;;
4422;SDS011;2224;49.814;8.650;2023-05-14T09:54:06;6.60;;;6.07;;
4422;SDS011;2224;49.814;8.650;2023-05-14T09:56:32;6.27;;;5.67;;
4422;SDS011;2224;49.814;8.650;2023-05-14T09:58:58;5.87;;;5.37;;
4422;SDS011;2224;49.814;8.650;2023-05-14T10:01:24;6.00;;;5.17;;
4422;SDS011;2224;49.814;8.650;2023-05-14T10:03:49;5.97;;;5.40;;
4422;SDS011;2224;49.814;8.650;2023-05-14T10:06:15;5.87;;;5.37;;
4422;SDS011;2224;49.814;8.650;2023-05-14T10:08:43;6.03;;;5.53;;
4422;SDS011;2224;49.814;8.650;2023-05-14T10:11:14;6.10;;;5.53;;
4422;SDS011;2224;49.814;8.650;2023-05-14T10:13:44;6.20;;;5.70;;
4422;SDS011;2224;49.814;8.650;2023-05-14T10:18:40;5.67;;;5.07;;
4422;SDS011;2224;49.814;8.650;2023-05-14T10:21:07;5.90;;;5.40;;
4422;SDS011;2224;49.814;8.650;2023-05-14T10:23:35;5.87;;;5.37;;
4422;SDS011;2224;49.814;8.650;2023-05-14T10:26:01;5.17;;;4.67;;
4422;SDS011;2224;49.814;8.650;2023-05-14T10:28:27;5.47;;;4.97;;
4422;SDS011;2224;49.814;8.650;2023-05-14T10:30:53;5.90;;;5.40;;
4422;SDS011;2224;49.814;8.650;2023-05-14T10:33:18;6.13;;;5.53;;
4422;SDS011;2224;49.814;8.650;2023-05-14T10:38:15;5.87;;;5.03;;
4422;SDS011;2224;49.814;8.650;2023-05-14T10:40:40;5.47;;;4.97;;
4422;SDS011;2224;49.814;8.650;2023-05-14T10:43:05;5.00;;;4.60;;
4422;SDS011;2224;49.814;8.650;2023-05-14T10:45:32;5.30;;;4.80;;
4422;SDS011;2224;49.814;8.650;2023-05-14T10:47:58;5.13;;;4.60;;
4422;SDS011;2224;49.814;8.650;2023-05-14T10:50:23;5.53;;;5.03;;
4422;SDS011;2224;49.814;8.650;2023-05-14T10:52:50;5.97;;;5.37;;
4422;SDS011;2224;49.814;8.650;2023-05-14T10:55:16;5.67;;;5.27;;
4422;SDS011;2224;49.814;8.650;2023-05-14T10:57:42;5.17;;;4.77;;
4422;SDS011;2224;49.814;8.650;2023-05-14T11:00:09;5.93;;;5.17;;
4422;SDS011;2224;49.814;8.650;2023-05-14T11:02:37;5.20;;;4.80;;
4422;SDS011;2224;49.814;8.650;2023-05-14T11:05:04;5.73;;;4.70;;
4422;SDS011;2224;49.814;8.650;2023-05-14T11:07:35;5.80;;;5.20;;
4422;SDS011;2224;49.814;8.650;2023-05-14T11:10:05;6.07;;;5.57;;
4422;SDS011;2224;49.814;8.650;2023-05-14T11:12:38;6.17;;;5.57;;
4422;SDS011;2224;49.814;8.650;2023-05-14T11:15:08;5.70;;;5.23;;
4422;SDS011;2224;49.814;8.650;2023-05-14T11:17:35;5.53;;;5.13;;
4422;SDS011;2224;49.814;8.650;2023-05-14T11:20:01;5.80;;;5.30;;
4422;SDS011;2224;49.814;8.650;2023-05-14T11:22:27;5.90;;;5.40;;
4422;SDS011;2224;49.814;8.650;2023-05-14T11:24:52;5.23;;;4.73;;
4422;SDS011;2224;49.814;8.650;2023-05-14T11:27:18;5.97;;;5.30;;
4422;SDS011;2224;49.814;8.650;2023-05-14T11:29:44;5.40;;;5.00;;
4422;SDS011;2224;49.814;8.650;2023-05-14T11:32:12;5.87;;;5.37;;
4422;SDS011;2224;49.814;8.650;2023-05-14T11:34:38;4.90;;;4.50;;
4422;SDS011;2224;49.814;8.650;2023-05-14T11:37:04;5.17;;;4.77;;
4422;SDS011;2224;49.814;8.650;2023-05-14T11:39:30;5.60;;;5.10;;
4422;SDS011;2224;49.814;8.650;2023-05-14T11:42:03;5.73;;;5.17;;
4422;SDS011;2224;49.814;8.650;2023-05-14T11:44:30;5.57;;;5.07;;
4422;SDS011;2224;49.814;8.650;2023-05-14T11:46:56;5.03;;;4.63;;
4422;SDS011;2224;49.814;8.650;2023-05-14T11:49:22;5.00;;;4.60;;
4422;SDS011;2224;49.814;8.650;2023-05-14T11:51:49;5.30;;;4.80;;
4422;SDS011;2224;49.814;8.650;2023-05-14T11:54:15;4.93;;;4.53;;
4422;SDS011;2224;49.814;8.650;2023-05-14T11:56:40;6.40;;;5.23;;
4422;SDS011;2224;49.814;8.650;2023-05-14T11:59:06;5.60;;;5.03;;
4422;SDS011;2224;49.814;8.650;2023-05-14T12:01:37;5.30;;;4.80;;
4422;SDS011;2224;49.814;8.650;2023-05-14T12:04:03;6.83;;;4.30;;
4422;SDS011;2224;49.814;8.650;2023-05-14T12:06:31;5.20;;;4.70;;
4422;SDS011;2224;49.814;8.650;2023-05-14T12:08:57;8.13;;;5.40;;
4422;SDS011;2224;49.814;8.650;2023-05-14T12:11:22;5.50;;;5.00;;
4422;SDS011;2224;49.814;8.650;2023-05-14T12:13:48;5.00;;;4.60;;
4422;SDS011;2224;49.814;8.650;2023-05-14T12:16:13;4.90;;;4.40;;
4422;SDS011;2224;49.814;8.650;2023-05-14T12:18:38;4.90;;;4.40;;
4422;SDS011;2224;49.814;8.650;2023-05-14T12:21:04;4.83;;;4.13;;
4422;SDS011;2224;49.814;8.650;2023-05-14T12:23:32;4.63;;;4.23;;
4422;SDS011;2224;49.814;8.650;2023-05-14T12:26:04;4.23;;;3.83;;
4422;SDS011;2224;49.814;8.650;2023-05-14T12:28:31;4.90;;;4.50;;
4422;SDS011;2224;49.814;8.650;2023-05-14T12:30:56;4.40;;;4.00;;
4422;SDS011;2224;49.814;8.650;2023-05-14T12:33:25;4.27;;;3.97;;
4422;SDS011;2224;49.814;8.650;2023-05-14T12:35:51;4.20;;;3.80;;
4422;SDS011;2224;49.814;8.650;2023-05-14T12:38:25;4.63;;;4.23;;
4422;SDS011;2224;49.814;8.650;2023-05-14T12:40:50;5.00;;;4.60;;
4422;SDS011;2224;49.814;8.650;2023-05-14T12:43:15;4.37;;;3.97;;
4422;SDS011;2224;49.814;8.650;2023-05-14T12:45:41;4.17;;;3.77;;
4422;SDS011;2224;49.814;8.650;2023-05-14T12:48:06;4.87;;;4.47;;
4422;SDS011;2224;49.814;8.650;2023-05-14T12:50:31;4.20;;;3.80;;
4422;SDS011;2224;49.814;8.650;2023-05-14T12:52:56;4.87;;;4.47;;
4422;SDS011;2224;49.814;8.650;2023-05-14T12:55:22;5.37;;;4.87;;
4422;SDS011;2224;49.814;8.650;2023-05-14T12:57:47;4.23;;;3.93;;
4422;SDS011;2224;49.814;8.650;2023-05-14T13:00:13;3.80;;;3.50;;
4422;SDS011;2224;49.814;8.650;2023-05-14T13:02:39;4.47;;;3.97;;
4422;SDS011;2224;49.814;8.650;2023-05-14T13:05:04;4.33;;;4.03;;
4422;SDS011;2224;49.814;8.650;2023-05-14T13:07:30;4.93;;;4.53;;
4422;SDS011;2224;49.814;8.650;2023-05-14T13:09:55;4.60;;;4.30;;
4422;SDS011;2224;49.814;8.650;2023-05-14T13:12:24;5.37;;;4.00;;
4422;SDS011;2224;49.814;8.650;2023-05-14T13:14:49;5.57;;;5.07;;
4422;SDS011;2224;49.814;8.650;2023-05-14T13:17:14;4.40;;;4.10;;
4422;SDS011;2224;49.814;8.650;2023-05-14T13:19:40;4.50;;;4.10;;
4422;SDS011;2224;49.814;8.650;2023-05-14T13:22:05;4.23;;;3.93;;
4422;SDS011;2224;49.814;8.650;2023-05-14T13:24:30;4.20;;;3.80;;
4422;SDS011;2224;49.814;8.650;2023-05-14T13:26:56;5.80;;;4.13;;
4422;SDS011;2224;49.814;8.650;2023-05-14T13:29:21;3.63;;;3.33;;
4422;SDS011;2224;49.814;8.650;2023-05-14T13:31:46;4.03;;;3.73;;
4422;SDS011;2224;49.814;8.650;2023-05-14T13:34:12;4.33;;;3.80;;
4422;SDS011;2224;49.814;8.650;2023-05-14T13:36:37;4.17;;;3.53;;
4422;SDS011;2224;49.814;8.650;2023-05-14T13:39:06;3.63;;;3.33;;
4422;SDS011;2224;49.814;8.650;2023-05-14T13:41:31;4.40;;;4.10;;
4422;SDS011;2224;49.814;8.650;2023-05-14T13:43:59;4.00;;;3.70;;
4422;SDS011;2224;49.814;8.650;2023-05-14T13:46:24;3.73;;;3.43;;
4422;SDS011;2224;49.814;8.650;2023-05-14T13:48:50;5.20;;;4.20;;
4422;SDS011;2224;49.814;8.650;2023-05-14T13:51:15;4.30;;;4.00;;
4422;SDS011;2224;49.814;8.650;2023-05-14T13:53:40;3.80;;;3.50;;
4422;SDS011;2224;49.814;8.650;2023-05-14T13:56:06;3.07;;;2.83;;
4422;SDS011;2224;49.814;8.650;2023-05-14T13:58:32;3.60;;;3.30;;
4422;SDS011;2224;49.814;8.650;2023-05-14T14:00:58;3.80;;;3.50;;
4422;SDS011;2224;49.814;8.650;2023-05-14T14:03:23;4.50;;;3.77;;
4422;SDS011;2224;49.814;8.650;2023-05-14T14:05:48;3.20;;;3.00;;
4422;SDS011;2224;49.814;8.650;2023-05-14T14:08:14;3.47;;;3.17;;
4422;SDS011;2224;49.814;8.650;2023-05-14T14:10:39;3.73;;;3.43;;
4422;SDS011;2224;49.814;8.650;2023-05-14T14:13:06;4.10;;;3.80;;
4422;SDS011;2224;49.814;8.650;2023-05-14T14:15:31;3.90;;;3.60;;
4422;SDS011;2224;49.814;8.650;2023-05-14T14:17:57;3.40;;;3.20;;
4422;SDS011;2224;49.814;8.650;2023-05-14T14:20:25;3.13;;;2.93;;
4422;SDS011;2224;49.814;8.650;2023-05-14T14:22:50;3.37;;;3.07;;
4422;SDS011;2224;49.814;8.650;2023-05-14T14:25:16;3.70;;;3.40;;
4422;SDS011;2224;49.814;8.650;2023-05-14T14:27:41;4.00;;;3.70;;
4422;SDS011;2224;49.814;8.650;2023-05-14T14:30:07;3.70;;;3.40;;
4422;SDS011;2224;49.814;8.650;2023-05-14T14:32:39;5.20;;;4.20;;
4422;SDS011;2224;49.814;8.650;2023-05-14T14:35:06;3.97;;;3.67;;
4422;SDS011;2224;49.814;8.650;2023-05-14T14:37:31;4.03;;;3.63;;
4422;SDS011;2224;49.814;8.650;2023-05-14T14:39:57;4.73;;;3.40;;
4422;SDS011;2224;49.814;8.650;2023-05-14T14:42:22;5.73;;;3.83;;
4422;SDS011;2224;49.814;8.650;2023-05-14T14:44:47;4.33;;;3.90;;
4422;SDS011;2224;49.814;8.650;2023-05-14T14:47:12;4.03;;;3.73;;
4422;SDS011;2224;49.814;8.650;2023-05-14T14:49:38;3.60;;;3.30;;
4422;SDS011;2224;49.814;8.650;2023-05-14T14:52:03;3.63;;;3.40;;
4422;SDS011;2224;49.814;8.650;2023-05-14T14:54:29;3.90;;;3.30;;
4422;SDS011;2224;49.814;8.650;2023-05-14T14:56:54;3.43;;;3.13;;
4422;SDS011;2224;49.814;8.650;2023-05-14T14:59:19;4.13;;;3.80;;
4422;SDS011;2224;49.814;8.650;2023-05-14T15:01:44;6.33;;;3.40;;
4422;SDS011;2224;49.814;8.650;2023-05-14T15:04:10;3.40;;;3.10;;
4422;SDS011;2224;49.814;8.650;2023-05-14T15:06:35;3.53;;;3.23;;
4422;SDS011;2224;49.814;8.650;2023-05-14T15:09:01;3.90;;;3.60;;
4422;SDS011;2224;49.814;8.650;2023-05-14T15:11:26;3.40;;;2.97;;